Dinwiddie, VA (23841)

9:31 AM EST on December 29, 2014 (GMT -0500)
Dinwiddie | Change Station
CLOSE
Current Station
Personal Weather Station
Location: Dinwiddie, VA
Elevation: 243 ft
Nearby Weather Stations

Elev 243 ft 37.11 °N, 77.56 °W | Updated 4 minutes ago

Rain
Rain
40.5 °F
Feels Like 40 °F
N
1.7
Wind Variable Wind from ESE

Today
High -- | Low -- °F
--% Chance of Precip.
Yesterday
High -- | Low -- °F
Precip. -- in
7:23 AM 5:01 PM
First Quarter, 59% visible
Pressure 30.23 in
Visibility 7.0 miles
Clouds Scattered Clouds 1700 ft
Overcast 2500 ft
Windchill 40 °F
Dew Point 40 °F
Humidity 99%
Rainfall 0.74 in
Snow Depth Not available.
UV 0 out of 12
Pollen .10 out of 12
Air Quality Not available.
Flu Activity Not available.
METAR KPTB 291415Z AUTO 02007KT 7SM RA SCT017 OVC025 05/04 A3023 RMK AO2 P0002 T00540042

More Conditions Fewer Conditions

Pressure 30.23 in
Visibility 7.0 miles
Clouds Scattered Clouds 1700 ft
Overcast 2500 ft
Windchill 40 °F
Dew Point 40 °F
Humidity 99%
Rainfall 0.74 in
Snow Depth Not available.
UV 0 out of 12
Pollen .10 out of 12
Air Quality Not available.
Flu Activity Not available.
METAR KPTB 291415Z AUTO 02007KT 7SM RA SCT017 OVC025 05/04 A3023 RMK AO2 P0002 T00540042

More Conditions Fewer Conditions

10-Day Weather Forecast

Almanac

Astronomy

Dec. 29, 2014 Rise Set
Actual Time
Civil Twilight
Nautical Twilight
Astronomical Twilight
Moon
Length of Visible Light
Length of Day
Tomorrow will be .
, % of the Moon is Illuminated

Today's Extremes

State Highs State Lows

Community

WunderPhotos

Upload Photos

1,781,590 photos uploaded!

WunderBlogs® & News

Nearby

Air Quality

  Air Quality AQ Index Pollutant
Not available.

Snow Depth

Station Depth Elevation

Earthquake Activity

City Distance Mag. Time & Date
Minimum magnitude displayed is 2.5.

Coastal Water Temperatures

Place Temperature

Nearby Weather Stations